Sarny, Ukraine
Current Conditions -  °F | °C
As of 6:00 PM on Thursday 23 Oct 2014 (Local Time) from UKLR Reporting Station
Overcast Overcast  
Wind Chill: 29°   Ceiling: 2200
Heat Index: 37°   Visibility: 6mi
Dew Point: 28°   Wind: 13mph
Humidity: 70%   Direction: 60°ENE
Pressure: 30.12"   Gusts: NA
Location:  51.33°N, 26.6°E
Report Text: UKLR 231500Z 06006MPS 9999 OVC022 03/M02 Q1020 NOSIG
Loading
Personal Weather Stations






























Interactive Weather Map
Tropical Storm Tracking
New forecast layout! Learn more

10-Day Weather Forecast

Advertisements
Track Severe Weather on mobile